Latest Weather Observations for High Range (Wanganderry)

IDN60801

Issued at 7:03 am EST Friday 1 July 2016 (issued every 30 minutes, with the page automatically refreshed every 10 minutes)

About weather observations | Map of weather stations | Latest weather observations for NSW | Other Formats
Station Details ID: 068262 Name: HIGH RANGE AWS (WANGANDERRY) Lat: -34.33 Lon: 150.27 Height: 813.6 m
Data from the previous 72 hours. | See also: Recent months for locations in New South Wales
Date/Time
EST
Temp
°C
App
Temp
°C
Dew
Point
°C
Rel
Hum
%
Delta-T
°C
Wind Press
QNH
hPa
Press
MSL
hPa
Rain since
9am
mm
Dir  Spd
km/h
Gust
km/h
Spd
kts
Gust
kts
01/07:00am 2.9 -6.9 0.1 82 1.1 W 41 56 22 30 1013.2 1013.3 0.4
01/06:30am 2.6 -6.7 0.5 86 0.8 W 39 59 21 32 1012.6 1012.7 0.4
01/06:28am 2.6 -6.7 0.5 86 0.8 W 39 59 21 32 1012.6 1012.7 0.4
01/06:00am 2.5 -6.5 0.2 85 0.9 WSW 37 50 20 27 1012.7 1012.9 0.4
01/05:30am 2.3 -7.1 0.2 86 0.8 W 39 52 21 28 1012.1 1012.2 0.4
01/05:00am 2.0 -6.6 0.2 88 0.7 W 35 44 19 24 1011.8 1011.9 0.4
01/04:30am 1.7 -5.2 0.4 91 0.5 W 26 32 14 17 1011.9 1012.0 0.4
01/04:00am 1.7 -6.3 0.4 91 0.5 W 32 41 17 22 1011.8 1011.9 0.4
01/03:30am 2.3 -5.2 1.0 91 0.5 W 30 37 16 20 1012.0 1012.1 0.4
01/03:00am 2.7 -4.4 1.5 92 0.5 W 28 41 15 22 1012.1 1012.2 0.4
01/02:30am 3.6 -3.8 1.8 88 0.7 W 30 46 16 25 1012.3 1012.4 0.4
01/02:00am 4.7 -2.6 2.7 87 0.9 W 30 59 16 32 1012.4 1012.5 0.2
01/01:59am 4.9 -2.0 2.8 86 0.9 W 28 59 15 32 1012.3 1012.4 0.2
01/01:30am 5.9 -0.3 2.4 78 1.5 WNW 24 37 13 20 1011.9 1012.0 0.0
01/01:00am 6.4 1.1 1.7 72 2.0 NW 19 30 10 16 1011.8 1011.9 0.0
01/12:30am 6.3 0.4 1.4 71 2.1 NNW 22 35 12 19 1011.4 1011.5 0.0
01/12:00am 6.1 -0.3 1.1 70 2.1 NW 24 35 13 19 1012.1 1012.2 0.0
 
Date/Time
EST
Temp
°C
App
Temp
°C
Dew
Point
°C
Rel
Hum
%
Delta-T
°C
Wind Press
QNH
hPa
Press
MSL
hPa
Rain since
9am
mm
Dir  Spd
km/h
Gust
km/h
Spd
kts
Gust
kts
30/11:30pm 5.2 0.8 0.6 72 1.9 NNW 13 26 7 14 1012.4 1012.5 0.0
30/11:00pm 4.6 0.5 -0.4 70 2.0 N 11 17 6 9 1012.9 1013.1 0.0
30/10:30pm 4.3 -1.0 -0.9 69 2.0 N 17 20 9 11 1012.7 1012.9 0.0
30/10:00pm 5.5 -1.1 -0.5 65 2.4 NNW 24 37 13 20 1013.2 1013.3 0.0
30/09:30pm 5.2 -0.2 -1.3 63 2.5 NW 17 28 9 15 1013.8 1014.0 0.0
30/09:00pm 5.2 0.1 -1.7 61 2.7 NW 15 24 8 13 1014.1 1014.3 0.0
30/08:30pm 5.3 0.2 -1.8 60 2.7 NW 15 26 8 14 1014.6 1014.7 0.0
30/08:00pm 5.4 0.0 -1.7 60 2.7 NW 17 30 9 16 1014.2 1014.4 0.0
30/07:30pm 5.3 -0.7 -1.4 62 2.6 NNW 20 30 11 16 1014.1 1014.3 0.0
30/07:00pm 5.4 -0.9 -1.1 63 2.6 NNW 22 30 12 16 1014.0 1014.2 0.0
30/06:30pm 5.9 -1.9 -1.0 61 2.7 NNW 30 39 16 21 1013.9 1014.1 0.0
30/06:00pm 6.0 -1.9 -1.2 60 2.8 NNW 30 44 16 24 1013.9 1014.1 0.0
30/05:30pm 5.8 0.0 -1.3 60 2.8 NNW 19 26 10 14 1013.9 1014.1 0.0
30/05:00pm 6.5 0.1 -1.6 56 3.2 NNW 22 33 12 18 1013.8 1014.0 0.0
30/04:30pm 7.2 1.2 -1.2 55 3.4 NW 20 28 11 15 1014.0 1014.2 0.0
30/04:00pm 7.9 0.8 -1.6 51 3.8 NW 26 39 14 21 1014.1 1014.3 0.0
30/03:30pm 8.7 1.3 -0.9 51 3.9 NW 28 50 15 27 1014.2 1014.4 0.0
30/03:26pm 8.5 0.6 -1.6 49 4.1 WNW 30 50 16 27 1014.0 1014.2 0.0
30/03:00pm 8.9 3.4 1.8 61 3.1 WNW 20 28 11 15 1014.2 1014.4 0.0
30/02:30pm 7.2 2.2 1.1 65 2.6 WNW 17 20 9 11 1014.5 1014.6 0.0
30/02:00pm 7.2 1.5 0.4 62 2.8 WNW 20 28 11 15 1014.6 1014.7 0.0
30/01:30pm 7.5 1.5 -1.2 54 3.5 WNW 20 28 11 15 1015.0 1015.2 0.0
30/01:00pm 7.8 2.0 -1.7 51 3.8 WNW 19 28 10 15 1015.5 1015.7 0.0
30/12:30pm 8.2 3.2 -1.3 51 3.8 WNW 15 20 8 11 1016.4 1016.6 0.0
30/12:00pm 7.9 1.1 -2.1 49 3.9 WNW 24 30 13 16 1017.3 1017.5 0.0
30/11:30am 8.1 1.7 -1.7 50 3.9 W 22 32 12 17 1017.8 1018.0 0.0
30/11:00am 9.1 3.0 -4.1 39 5.0 W 19 24 10 13 1018.6 1018.8 0.0
30/10:30am 9.4 3.2 -4.5 37 5.3 W 19 24 10 13 1018.9 1019.1 0.0
30/10:00am 9.6 4.7 -7.5 29 6.0 WNW 11 15 6 8 1019.2 1019.5 0.0
30/09:30am 9.4 4.8 -8.2 28 6.1 NNW 9 13 5 7 1019.3 1019.6 0.0
30/09:00am 9.2 3.8 -7.9 29 5.9 NNW 13 15 7 8 1019.3 1019.6 0.0
30/08:30am 8.1 2.4 -7.2 33 5.3 NNW 15 19 8 10 1019.4 1019.7 0.0
30/08:00am 7.6 1.1 -8.0 32 5.3 NNW 19 24 10 13 1019.3 1019.6 0.0
30/07:30am 6.9 -1.3 -7.9 34 5.0 NNW 28 33 15 18 1019.2 1019.5 0.0
30/07:00am 5.7 -1.2 -6.2 42 4.1 NNW 22 26 12 14 1019.3 1019.6 0.0
30/06:30am 6.7 0.0 -8.0 34 4.9 NNW 20 24 11 13 1019.3 1019.6 0.0
30/06:00am 6.8 -0.2 -6.8 37 4.7 NNW 22 28 12 15 1019.4 1019.7 0.0
30/05:30am 4.8 0.2 -0.8 67 2.2 N 13 13 7 7 1019.8 1020.0 0.0
30/05:00am 5.0 0.5 0.0 70 2.0 N 13 15 7 8 1019.9 1020.1 0.0
30/04:30am 4.7 0.7 0.5 74 1.7 N 11 13 6 7 1020.1 1020.4 0.0
30/04:00am 4.2 -0.6 0.5 77 1.5 N 15 17 8 9 1020.3 1020.6 0.0
30/03:30am 4.9 -0.2 1.0 76 1.6 N 17 19 9 10 1020.6 1020.9 0.0
30/03:00am 4.9 0.6 1.2 77 1.5 N 13 13 7 7 1021.1 1021.3 0.0
30/02:30am 4.9 1.0 1.4 78 1.5 N 11 15 6 8 1021.6 1021.9 0.0
30/02:00am 4.7 0.1 1.4 79 1.4 N 15 17 8 9 1021.8 1022.1 0.0
30/01:30am 5.0 0.7 1.3 77 1.5 N 13 15 7 8 1022.1 1022.4 0.0
30/01:00am 5.3 1.0 1.1 74 1.7 N 13 17 7 9 1022.4 1022.7 0.0
30/12:30am 5.2 0.5 0.8 73 1.8 NNE 15 17 8 9 1022.7 1023.0 0.0
30/12:00am 5.4 0.3 0.8 72 1.9 NNE 17 19 9 10 1023.1 1023.4 0.0
 
Date/Time
EST
Temp
°C
App
Temp
°C
Dew
Point
°C
Rel
Hum
%
Delta-T
°C
Wind Press
QNH
hPa
Press
MSL
hPa
Rain since
9am
mm
Dir  Spd
km/h
Gust
km/h
Spd
kts
Gust
kts
29/11:30pm 5.6 0.5 0.8 71 2.0 NNE 17 20 9 11 1023.4 1023.8 0.0
29/11:00pm 6.0 1.0 1.2 71 2.0 N 17 19 9 10 1023.9 1024.2 0.0
29/10:30pm 6.3 1.0 1.6 72 2.0 N 19 20 10 11 1024.2 1024.5 0.0
29/10:00pm 5.5 0.9 1.4 75 1.7 NNE 15 17 8 9 1024.3 1024.7 0.0
29/09:30pm 5.7 1.5 1.8 76 1.7 NNE 13 15 7 8 1024.7 1025.1 0.0
29/09:00pm 5.6 1.9 2.3 79 1.4 NNE 11 15 6 8 1024.8 1025.2 0.0
29/08:30pm 6.1 2.4 2.6 78 1.5 NNE 11 13 6 7 1025.2 1025.5 0.0
29/08:00pm 6.3 3.4 2.6 77 1.6 NNE 7 9 4 5 1025.4 1025.8 0.0
29/07:30pm 6.3 2.6 2.2 75 1.8 NE 11 13 6 7 1025.3 1025.6 0.0
29/07:00pm 7.1 3.3 1.6 68 2.3 NNE 11 13 6 7 1025.3 1025.6 0.0
29/06:30pm 7.3 3.5 1.6 67 2.4 N 11 13 6 7 1025.2 1025.5 0.0
29/06:00pm 7.6 4.6 1.9 67 2.4 N 7 9 4 5 1025.2 1025.5 0.0
29/05:30pm 8.3 5.3 1.7 63 2.9 N 7 7 4 4 1025.0 1025.3 0.0
29/05:00pm 8.7 5.7 1.1 59 3.2 N 6 6 3 3 1025.1 1025.4 0.0
29/04:30pm 10.2 7.7 1.3 54 3.9 N 4 6 2 3 1025.2 1025.5 0.0
29/04:00pm 11.1 8.1 1.1 50 4.4 N 6 7 3 4 1025.2 1025.5 0.0
29/03:30pm 11.8 9.6 0.9 47 4.8 W 2 9 1 5 1025.2 1025.5 0.0
29/03:00pm 11.4 9.2 0.8 48 4.6 SSW 2 6 1 3 1025.2 1025.5 0.0
29/02:30pm 11.1 8.4 0.2 47 4.7 SSE 4 6 2 3 1025.1 1025.4 0.0
29/02:00pm 11.0 8.2 -0.2 46 4.7 S 4 6 2 3 1025.2 1025.5 0.0
29/01:30pm 10.9 7.6 0.3 48 4.6 SSW 7 11 4 6 1025.5 1025.9 0.0
29/01:00pm 10.5 7.3 0.5 50 4.3 SW 7 9 4 5 1025.7 1026.1 0.0
29/12:30pm 10.5 7.3 0.5 50 4.3 W 7 11 4 6 1026.1 1026.5 0.0
29/12:00pm 10.3 7.1 0.6 51 4.1 WSW 7 11 4 6 1026.7 1027.1 0.0
29/11:30am 9.9 6.4 1.3 55 3.7 WSW 9 15 5 8 1027.0 1027.4 0.0
29/11:00am 9.5 5.6 1.4 57 3.5 SW 11 13 6 7 1027.3 1027.7 0.0
29/10:30am 8.2 4.1 2.2 66 2.6 SW 13 15 7 8 1027.6 1028.0 0.0
29/10:00am 6.9 2.7 1.4 68 2.3 SW 13 17 7 9 1027.9 1028.3 0.0
29/09:30am 6.0 1.3 1.2 71 2.0 SW 15 17 8 9 1027.9 1028.3 0.0
29/09:00am 5.2 0.1 1.0 74 1.7 SW 17 20 9 11 1027.4 1027.9 0.0
29/08:30am 4.0 -1.5 0.5 78 1.4 SW 19 22 10 12 1027.3 1027.7 0.0
29/08:00am 3.1 -2.5 0.2 81 1.1 WSW 19 19 10 10 1027.2 1027.6 0.0
29/07:30am 2.6 -3.0 0.0 83 1.0 WSW 19 20 10 11 1027.0 1027.4 0.0
29/07:00am 3.0 -2.8 -0.1 80 1.2 W 20 20 11 11 1026.8 1027.2 0.0
29/06:30am 2.9 -2.9 0.0 81 1.1 WSW 20 22 11 12 1026.6 1027.0 0.0
29/06:00am 2.5 -3.6 0.1 84 0.9 W 22 24 12 13 1026.4 1026.7 0.0
29/05:30am 3.2 -2.9 0.1 80 1.2 W 22 26 12 14 1026.3 1026.6 0.0
29/05:00am 2.5 -3.6 0.2 85 0.9 W 22 24 12 13 1026.0 1026.4 0.0
29/04:30am 2.6 -3.9 0.3 85 0.9 W 24 28 13 15 1025.8 1026.2 0.0
29/04:00am 2.1 -4.4 0.6 90 0.6 W 24 28 13 15 1025.7 1026.1 0.0
29/03:30am 2.5 -3.9 0.7 88 0.7 W 24 28 13 15 1025.7 1026.1 0.0
29/03:00am 2.6 -4.2 0.8 88 0.7 W 26 28 14 15 1025.7 1026.1 0.0
29/02:30am 2.4 -4.0 0.8 89 0.6 W 24 26 13 14 1025.8 1026.2 0.0
29/02:00am 2.5 -3.9 0.7 88 0.7 W 24 28 13 15 1025.8 1026.2 0.0
29/01:30am 3.0 -4.1 1.1 87 0.8 W 28 33 15 18 1025.9 1026.3 0.0
29/01:00am 2.8 -4.4 0.9 87 0.8 W 28 30 15 16 1025.8 1026.2 0.0
29/12:30am 3.0 -4.5 1.1 87 0.8 W 30 33 16 18 1026.0 1026.4 0.0
29/12:00am 3.1 -4.8 1.0 86 0.8 WSW 32 37 17 20 1026.1 1026.5 0.0
 
Date/Time
EST
Temp
°C
App
Temp
°C
Dew
Point
°C
Rel
Hum
%
Delta-T
°C
Wind Press
QNH
hPa
Press
MSL
hPa
Rain since
9am
mm
Dir  Spd
km/h
Gust
km/h
Spd
kts
Gust
kts
28/11:30pm 3.5 -4.6 1.1 84 1.0 WSW 33 43 18 23 1026.3 1026.6 0.0
28/11:00pm 3.2 -4.7 1.1 86 0.8 W 32 37 17 20 1026.4 1026.7 0.0
28/10:30pm 3.5 -5.0 1.1 84 1.0 W 35 41 19 22 1026.3 1026.6 0.0
28/10:00pm 3.5 -4.6 1.1 84 1.0 W 33 43 18 23 1026.3 1026.6 0.0
28/09:30pm 3.4 -3.8 1.0 84 1.0 W 28 32 15 17 1026.1 1026.5 0.0
28/09:00pm 3.1 -3.7 0.5 83 1.0 W 26 32 14 17 1026.1 1026.5 0.0
28/08:30pm 3.2 -3.6 0.6 83 1.0 W 26 30 14 16 1026.0 1026.4 0.0
28/08:00pm 3.7 -4.2 0.8 81 1.2 W 32 41 17 22 1025.8 1026.2 0.0
28/07:30pm 4.0 -3.9 0.9 80 1.3 W 32 37 17 20 1025.7 1026.1 0.0
28/07:00pm 4.3 -2.9 0.8 78 1.4 WSW 28 37 15 20 1025.4 1025.8 0.0
28/06:30pm 4.7 -2.8 1.0 77 1.5 W 30 33 16 18 1025.1 1025.4 0.0
28/06:00pm 4.9 -1.5 1.0 76 1.6 WSW 24 28 13 15 1024.7 1025.1 0.0
28/05:30pm 5.2 -1.6 1.0 74 1.7 W 26 32 14 17 1024.2 1024.5 0.0
28/05:00pm 5.8 -0.2 1.2 72 1.9 W 22 32 12 17 1023.9 1024.2 0.0
28/04:30pm 6.5 0.9 1.0 68 2.3 WSW 20 26 11 14 1023.7 1024.0 0.0
28/04:00pm 7.4 1.0 0.8 63 2.8 WSW 24 32 13 17 1023.5 1023.9 0.0
28/03:30pm 8.0 2.4 1.0 61 3.0 WSW 20 28 11 15 1023.4 1023.8 0.0
28/03:00pm 7.9 2.3 0.9 61 2.9 WSW 20 30 11 16 1023.1 1023.4 0.0
28/02:30pm 8.1 1.3 1.0 61 3.0 WSW 26 33 14 18 1022.9 1023.2 0.0
28/02:00pm 8.2 1.4 1.1 61 3.0 WSW 26 33 14 18 1022.7 1023.0 0.0
28/01:30pm 8.2 1.1 1.1 61 3.0 WSW 28 35 15 19 1022.6 1022.9 0.0
28/01:00pm 8.1 0.9 1.0 61 3.0 SW 28 35 15 19 1022.5 1022.8 0.0
28/12:30pm 7.2 0.7 0.6 63 2.8 WSW 24 33 13 18 1022.7 1023.0 0.0
28/12:00pm 7.3 0.6 1.2 65 2.6 WSW 26 33 14 18 1022.8 1023.1 0.0
28/11:30am 6.7 -0.5 1.0 67 2.4 WSW 28 35 15 19 1023.1 1023.4 0.0
28/11:00am 6.0 -0.8 1.0 70 2.1 WSW 26 35 14 19 1023.4 1023.8 0.0
28/10:30am 5.7 -1.1 1.1 72 1.9 WSW 26 33 14 18 1023.5 1023.9 0.0
28/10:00am 5.0 -2.2 0.9 75 1.7 WSW 28 35 15 19 1023.5 1023.9 0.0
28/09:30am 4.2 -2.3 0.2 75 1.6 WSW 24 32 13 17 1023.3 1023.7 0.0
28/09:00am 3.6 -2.5 0.1 78 1.4 WSW 22 30 12 16 1023.0 1023.3 0.0
28/08:30am 2.8 -4.5 -0.3 80 1.2 W 28 37 15 20 1022.4 1022.7 0.0
28/08:00am 2.0 -4.6 -0.7 82 1.0 W 24 33 13 18 1021.9 1022.2 0.0
28/07:30am 1.2 -5.9 -1.0 85 0.8 W 26 37 14 20 1021.6 1021.9 0.0

Other Formats:

Comma delimited format used in spreadsheet applications
http://www.bom.gov.au/fwo/IDN60801/IDN60801.99742.axf

JavaScript Object Notation format (JSON) in row-major order
http://www.bom.gov.au/fwo/IDN60801/IDN60801.99742.json